Time;durP1;ratioP1;P1;durP2;ratioP2;P2;SDS_P1;SDS_P2;PMS_P1;PMS_P2;Temp;Humidity;BMP_temperature;BMP_pressure;BME280_temperature;BME280_humidity;BME280_pressure;Samples;Min_cycle;Max_cycle;Signal;HPM_P1;HPM_P2
2024/02/08 00:00:28;;;;;;;9.80;5.10;;;;;;;-145.63;100.00;61273.97;5032194;28;20394;-66
2024/02/08 00:02:54;;;;;;;8.57;4.93;;;;;;;-145.63;100.00;61273.97;5031462;28;20060;-66
2024/02/08 00:05:19;;;;;;;9.45;6.07;;;;;;;-145.63;100.00;61273.97;5031679;28;20029;-67
2024/02/08 00:07:45;;;;;;;9.65;5.65;;;;;;;-145.63;100.00;61273.97;5031008;28;20033;-67
2024/02/08 00:10:11;;;;;;;8.38;5.35;;;;;;;-145.63;100.00;61273.97;5032116;28;20602;-66
2024/02/08 00:12:38;;;;;;;8.00;5.00;;;;;;;-145.63;100.00;61273.97;5043373;28;20032;-66
2024/02/08 00:15:06;;;;;;;8.00;4.68;;;;;;;-145.63;100.00;61273.97;5039836;28;20025;-67
2024/02/08 00:17:32;;;;;;;7.70;4.80;;;;;;;-145.63;100.00;61273.97;5031960;28;20029;-67
2024/02/08 00:19:58;;;;;;;8.73;5.43;;;;;;;-145.63;100.00;61273.97;5030352;28;20038;-66
2024/02/08 00:22:25;;;;;;;9.48;5.82;;;;;;;-145.63;100.00;61273.97;5031394;28;20104;-67
2024/02/08 00:24:55;;;;;;;8.13;4.70;;;;;;;-145.63;100.00;61273.97;5031565;28;20108;-69
2024/02/08 00:27:21;;;;;;;7.47;5.22;;;;;;;-145.63;100.00;61273.97;5031338;28;20091;-64
2024/02/08 00:29:47;;;;;;;10.38;5.50;;;;;;;-145.63;100.00;61273.97;5030245;28;20065;-65
2024/02/08 00:32:13;;;;;;;9.98;5.22;;;;;;;-145.63;100.00;61273.97;5025241;28;20132;-64
2024/02/08 00:34:40;;;;;;;9.40;5.38;;;;;;;-145.63;100.00;61273.97;5032027;28;20033;-67
2024/02/08 00:37:07;;;;;;;9.07;5.43;;;;;;;-145.63;100.00;61273.97;5031230;28;20056;-65
2024/02/08 00:39:33;;;;;;;9.68;6.00;;;;;;;-145.63;100.00;61273.97;5031614;28;20120;-66
2024/02/08 00:41:59;;;;;;;10.95;6.07;;;;;;;-145.63;100.00;61273.97;5031576;28;20048;-68
2024/02/08 00:44:27;;;;;;;9.57;5.60;;;;;;;-145.63;100.00;61273.97;5031710;28;20359;-66
2024/02/08 00:46:56;;;;;;;10.35;5.53;;;;;;;-145.63;100.00;61273.97;5031510;28;20053;-67
2024/02/08 00:49:22;;;;;;;9.88;5.50;;;;;;;-145.63;100.00;61273.97;5029468;28;20435;-65
2024/02/08 00:51:49;;;;;;;10.02;5.88;;;;;;;-145.63;100.00;61273.97;5026287;28;20033;-65
2024/02/08 00:54:16;;;;;;;8.63;5.10;;;;;;;-145.63;100.00;61273.97;5031542;28;20025;-65
2024/02/08 00:56:42;;;;;;;12.32;6.65;;;;;;;-145.63;100.00;61273.97;5030875;28;20037;-64
2024/02/08 00:59:10;;;;;;;9.32;6.10;;;;;;;-145.63;100.00;61273.97;5031463;28;20037;-66
2024/02/08 01:01:39;;;;;;;9.93;6.20;;;;;;;-145.63;100.00;61273.97;5031838;28;20045;-65
2024/02/08 01:04:05;;;;;;;9.30;5.75;;;;;;;-145.63;100.00;61273.97;5033858;28;20079;-67
2024/02/08 01:06:31;;;;;;;9.85;5.60;;;;;;;-145.63;100.00;61273.97;5033782;28;20025;-67
2024/02/08 01:08:57;;;;;;;10.27;5.63;;;;;;;-145.63;100.00;61273.97;5030999;28;20036;-66
2024/02/08 01:11:22;;;;;;;9.52;5.90;;;;;;;-145.63;100.00;61273.97;5031546;28;20082;-68
2024/02/08 01:13:49;;;;;;;9.95;5.57;;;;;;;-145.63;100.00;61273.97;5051393;28;20025;-66
2024/02/08 01:16:15;;;;;;;9.85;5.82;;;;;;;-145.63;100.00;61273.97;5031598;28;20083;-66
2024/02/08 01:18:41;;;;;;;7.72;5.28;;;;;;;-145.63;100.00;61273.97;5029846;28;20022;-64
2024/02/08 01:21:09;;;;;;;8.57;5.45;;;;;;;-145.63;100.00;61273.97;5030977;28;20037;-66
2024/02/08 01:23:35;;;;;;;8.10;5.68;;;;;;;-145.63;100.00;61273.97;5031086;28;20041;-65
2024/02/08 01:26:03;;;;;;;9.55;5.78;;;;;;;-145.63;100.00;61273.97;5033367;28;20063;-64
2024/02/08 01:28:30;;;;;;;7.85;5.57;;;;;;;-145.63;100.00;61273.97;5035096;28;20451;-67
2024/02/08 01:30:55;;;;;;;8.63;5.63;;;;;;;-145.63;100.00;61273.97;5033340;28;20462;-66
2024/02/08 01:33:21;;;;;;;8.95;5.45;;;;;;;-145.63;100.00;61273.97;5034447;28;20099;-66
2024/02/08 01:35:48;;;;;;;9.57;5.43;;;;;;;-145.63;100.00;61273.97;5034368;28;20052;-66
2024/02/08 01:38:16;;;;;;;8.10;5.43;;;;;;;-145.63;100.00;61273.97;5033072;28;20049;-66
2024/02/08 01:40:42;;;;;;;9.88;5.80;;;;;;;-145.63;100.00;61273.97;5034540;28;20525;-66
2024/02/08 01:43:10;;;;;;;8.32;5.43;;;;;;;-145.63;100.00;61273.97;5034481;28;20032;-67
2024/02/08 01:45:41;;;;;;;9.35;5.45;;;;;;;-145.63;100.00;61273.97;5034365;28;20423;-66
2024/02/08 01:48:12;;;;;;;9.48;5.65;;;;;;;-145.63;100.00;61273.97;5034195;28;20098;-67
2024/02/08 01:51:01;;;;;;;9.35;5.70;;;;;;;-145.63;100.00;61273.97;5034060;28;20037;-67
2024/02/08 01:53:27;;;;;;;10.55;5.75;;;;;;;-145.63;100.00;61273.97;5032737;28;20052;-67
2024/02/08 01:55:57;;;;;;;11.73;5.57;;;;;;;-145.63;100.00;61273.97;5033616;28;20053;-67
2024/02/08 01:58:24;;;;;;;9.60;5.35;;;;;;;-145.63;100.00;61273.97;5033952;28;20642;-66
2024/02/08 02:00:52;;;;;;;8.65;5.35;;;;;;;-145.63;100.00;61273.97;5034034;28;20026;-67
2024/02/08 02:03:19;;;;;;;8.90;5.18;;;;;;;-145.63;100.00;61273.97;5034581;28;20097;-67
2024/02/08 02:05:48;;;;;;;8.20;5.13;;;;;;;-145.63;100.00;61273.97;5034556;28;20041;-66
2024/02/08 02:08:16;;;;;;;8.68;5.57;;;;;;;-145.63;100.00;61273.97;5033930;28;20033;-66
2024/02/08 02:10:52;;;;;;;7.78;5.15;;;;;;;-145.63;100.00;61273.97;5033865;28;20026;-66
2024/02/08 02:13:19;;;;;;;9.55;5.97;;;;;;;-145.63;100.00;61273.97;5033182;28;20083;-67
2024/02/08 02:15:44;;;;;;;9.07;5.60;;;;;;;-145.63;100.00;61273.97;5033527;28;20025;-66
2024/02/08 02:18:12;;;;;;;8.45;5.55;;;;;;;-145.63;100.00;61273.97;5033858;28;20371;-66
2024/02/08 02:20:38;;;;;;;11.95;6.13;;;;;;;-145.63;100.00;61273.97;5033512;28;20083;-65
2024/02/08 02:23:09;;;;;;;10.57;5.75;;;;;;;-145.63;100.00;61273.97;5031940;28;20037;-65
2024/02/08 02:25:35;;;;;;;9.60;5.47;;;;;;;-145.63;100.00;61273.97;5033534;28;20087;-66
2024/02/08 02:28:02;;;;;;;11.25;6.53;;;;;;;-145.63;100.00;61273.97;5032974;28;20033;-65
2024/02/08 02:30:28;;;;;;;10.10;6.18;;;;;;;-145.63;100.00;61273.97;5032003;28;20029;-65
2024/02/08 02:32:56;;;;;;;12.05;6.68;;;;;;;-145.63;100.00;61273.97;5022298;28;20152;-66
2024/02/08 02:35:25;;;;;;;9.55;5.95;;;;;;;-145.63;100.00;61273.97;5033883;28;20108;-68
2024/02/08 02:37:51;;;;;;;9.80;6.32;;;;;;;-145.63;100.00;61273.97;5032345;28;20513;-67
2024/02/08 02:40:23;;;;;;;9.43;5.78;;;;;;;-145.63;100.00;61273.97;5033380;28;20064;-66
2024/02/08 02:42:54;;;;;;;10.77;6.18;;;;;;;-145.63;100.00;61273.97;5035793;28;20038;-66
2024/02/08 02:45:28;;;;;;;11.25;6.20;;;;;;;-145.63;100.00;61273.97;5037250;28;20081;-65
2024/02/08 02:47:56;;;;;;;10.90;6.60;;;;;;;-145.63;100.00;61273.97;5033361;28;20055;-66
2024/02/08 02:50:23;;;;;;;10.85;6.47;;;;;;;-145.63;100.00;61273.97;5028236;28;20486;-67
2024/02/08 02:52:50;;;;;;;12.30;5.95;;;;;;;-145.63;100.00;61273.97;5033071;28;20037;-68
2024/02/08 02:55:17;;;;;;;12.18;6.45;;;;;;;-145.63;100.00;61273.97;5013699;28;20510;-70
2024/02/08 02:57:45;;;;;;;9.85;6.18;;;;;;;-145.63;100.00;61273.97;5028713;28;20454;-69
2024/02/08 03:00:21;;;;;;;10.70;5.93;;;;;;;-145.63;100.00;61273.97;5031978;28;20037;-68
2024/02/08 03:02:51;;;;;;;11.05;6.38;;;;;;;-145.63;100.00;61273.97;5032214;28;20164;-66
2024/02/08 03:05:20;;;;;;;10.38;6.45;;;;;;;-145.63;100.00;61273.97;5032156;28;20039;-65
2024/02/08 03:07:48;;;;;;;10.18;5.82;;;;;;;-145.63;100.00;61273.97;5031994;28;20104;-66
2024/02/08 03:10:14;;;;;;;10.63;6.28;;;;;;;-145.63;100.00;61273.97;5033341;28;20124;-67
2024/02/08 03:12:41;;;;;;;9.95;6.05;;;;;;;-145.63;100.00;61273.97;5019296;28;20053;-66
2024/02/08 03:15:10;;;;;;;10.18;5.80;;;;;;;-145.63;100.00;61273.97;5021555;28;20417;-66
2024/02/08 03:17:38;;;;;;;10.07;6.03;;;;;;;-145.63;100.00;61273.97;5033101;28;20036;-65
2024/02/08 03:20:08;;;;;;;8.63;6.15;;;;;;;-145.63;100.00;61273.97;5032880;28;20387;-65
2024/02/08 03:22:35;;;;;;;10.60;6.88;;;;;;;-145.63;100.00;61273.97;5033024;28;20075;-67
2024/02/08 03:25:04;;;;;;;10.13;5.95;;;;;;;-145.63;100.00;61273.97;5032408;28;20644;-65
2024/02/08 03:27:34;;;;;;;12.55;6.00;;;;;;;-145.63;100.00;61273.97;5033037;28;20060;-65
2024/02/08 03:30:02;;;;;;;11.02;5.80;;;;;;;-145.63;100.00;61273.97;5032800;28;20373;-66
2024/02/08 03:32:31;;;;;;;9.80;5.80;;;;;;;-145.63;100.00;61273.97;5028495;28;20363;-68
2024/02/08 03:34:56;;;;;;;8.40;5.47;;;;;;;-145.63;100.00;61273.97;5012091;28;20495;-67
2024/02/08 03:37:23;;;;;;;11.63;5.93;;;;;;;-145.63;100.00;61273.97;5012009;28;20203;-65
2024/02/08 03:39:50;;;;;;;12.13;6.97;;;;;;;-145.63;100.00;61273.97;5027128;28;20431;-65
2024/02/08 03:42:16;;;;;;;10.25;5.13;;;;;;;-145.63;100.00;61273.97;5031477;28;20025;-65
2024/02/08 03:44:43;;;;;;;9.68;5.68;;;;;;;-145.63;100.00;61273.97;5031682;28;20037;-65
2024/02/08 03:47:09;;;;;;;9.77;5.45;;;;;;;-145.63;100.00;61273.97;5031900;28;20078;-66
2024/02/08 03:49:35;;;;;;;9.43;5.43;;;;;;;-145.63;100.00;61273.97;5042665;28;20469;-65
2024/02/08 03:52:02;;;;;;;9.00;5.65;;;;;;;-145.63;100.00;61273.97;5014245;28;20045;-66
2024/02/08 03:54:33;;;;;;;8.65;5.75;;;;;;;-145.63;100.00;61273.97;5020373;28;20022;-67
2024/02/08 03:57:05;;;;;;;8.07;5.10;;;;;;;-145.63;100.00;61273.97;5020398;28;20047;-65
2024/02/08 03:59:31;;;;;;;9.57;6.15;;;;;;;-145.63;100.00;61273.97;5031395;28;20021;-66
2024/02/08 04:02:02;;;;;;;10.52;6.07;;;;;;;-145.63;100.00;61273.97;5020300;28;20106;-65
2024/02/08 04:04:59;;;;;;;9.13;5.78;;;;;;;-145.63;100.00;61273.97;5012133;28;20033;-64
2024/02/08 04:07:45;;;;;;;10.18;6.30;;;;;;;-145.63;100.00;61273.97;5031726;28;20065;-64
2024/02/08 04:54:37;;;;;;;9.70;6.40;;;;;;;-145.63;100.00;61273.97;5030562;28;20037;-65
2024/02/08 04:57:07;;;;;;;10.35;5.93;;;;;;;-145.63;100.00;61273.97;5025817;28;20463;-64
2024/02/08 04:59:41;;;;;;;9.77;6.60;;;;;;;-145.63;100.00;61273.97;5029394;28;20052;-65
2024/02/08 05:02:06;;;;;;;12.00;6.15;;;;;;;-145.63;100.00;61273.97;5030525;28;20029;-65
2024/02/08 05:04:36;;;;;;;9.93;6.00;;;;;;;-145.63;100.00;61273.97;5034398;28;20033;-66
2024/02/08 05:07:06;;;;;;;12.27;6.90;;;;;;;-145.63;100.00;61273.97;5031435;28;20121;-67
2024/02/08 05:09:33;;;;;;;12.60;6.70;;;;;;;-145.63;100.00;61273.97;5026072;28;20040;-65
2024/02/08 05:11:59;;;;;;;9.57;6.15;;;;;;;-145.63;100.00;61273.97;5027282;28;20095;-65
2024/02/08 05:14:26;;;;;;;12.38;6.57;;;;;;;-145.63;100.00;61273.97;5033927;28;20149;-64
2024/02/08 05:16:55;;;;;;;10.85;6.53;;;;;;;-145.63;100.00;61273.97;5034684;28;20376;-65
2024/02/08 05:19:23;;;;;;;10.40;6.78;;;;;;;-145.63;100.00;61273.97;5034696;28;20025;-64
2024/02/08 05:21:50;;;;;;;10.48;7.03;;;;;;;-145.63;100.00;61273.97;5035616;28;20041;-65
2024/02/08 05:24:16;;;;;;;10.98;6.97;;;;;;;-145.63;100.00;61273.97;5035784;28;20083;-65
2024/02/08 05:26:45;;;;;;;11.18;6.78;;;;;;;-145.63;100.00;61273.97;5041747;28;20026;-64
2024/02/08 05:29:19;;;;;;;12.65;6.97;;;;;;;-145.63;100.00;61273.97;5043657;28;20022;-64
2024/02/08 05:31:47;;;;;;;13.07;6.50;;;;;;;-145.63;100.00;61273.97;5032285;28;20026;-64
2024/02/08 05:34:13;;;;;;;11.30;6.28;;;;;;;-145.63;100.00;61273.97;5034914;28;20459;-67
2024/02/08 05:36:42;;;;;;;10.32;6.07;;;;;;;-145.63;100.00;61273.97;5035481;28;20115;-65
2024/02/08 05:39:08;;;;;;;10.05;6.13;;;;;;;-145.63;100.00;61273.97;5026625;28;20490;-68
2024/02/08 05:41:34;;;;;;;9.82;6.25;;;;;;;-145.63;100.00;61273.97;5019177;28;20056;-65
2024/02/08 05:44:05;;;;;;;8.90;6.05;;;;;;;-145.63;100.00;61273.97;5034745;28;20030;-65
2024/02/08 05:46:46;;;;;;;11.80;6.40;;;;;;;-145.63;100.00;61273.97;5014707;28;20033;-64
2024/02/08 05:49:14;;;;;;;10.82;6.28;;;;;;;-145.63;100.00;61273.97;5045806;28;20036;-65
2024/02/08 05:51:46;;;;;;;10.23;6.10;;;;;;;-145.63;100.00;61273.97;5021691;28;20057;-65
2024/02/08 05:54:20;;;;;;;11.50;6.30;;;;;;;-145.63;100.00;61273.97;5023751;28;20029;-66
2024/02/08 05:56:47;;;;;;;9.65;5.93;;;;;;;-145.63;100.00;61273.97;5033257;28;20482;-68
2024/02/08 05:59:17;;;;;;;9.13;6.38;;;;;;;-145.63;100.00;61273.97;5032718;28;20041;-66
2024/02/08 06:01:50;;;;;;;11.80;6.05;;;;;;;-145.63;100.00;61273.97;5034448;28;20033;-67
2024/02/08 06:04:24;;;;;;;10.63;6.03;;;;;;;-145.63;100.00;61273.97;5034314;28;20128;-64
2024/02/08 06:07:05;;;;;;;8.38;5.75;;;;;;;-145.63;100.00;61273.97;5031700;28;20025;-65
2024/02/08 06:09:55;;;;;;;9.52;6.13;;;;;;;-145.63;100.00;61273.97;5032661;28;20040;-65
2024/02/08 06:13:05;;;;;;;10.57;5.93;;;;;;;-145.63;100.00;61273.97;5030615;28;20107;-65
2024/02/08 06:15:21;;;;;;;8.85;5.97;;;;;;;-145.63;100.00;61273.97;5025427;28;20077;-66
2024/02/08 06:18:06;;;;;;;9.75;6.22;;;;;;;-145.63;100.00;61273.97;5033665;28;20060;-64
2024/02/08 06:20:43;;;;;;;11.35;6.13;;;;;;;-145.63;100.00;61273.97;5033094;28;20048;-64
2024/02/08 06:23:16;;;;;;;10.50;6.80;;;;;;;-145.63;100.00;61273.97;5033152;28;20032;-65
2024/02/08 06:28:46;;;;;;;10.45;6.78;;;;;;;-145.63;100.00;61273.97;5014262;28;20030;-64
2024/02/08 06:31:15;;;;;;;12.23;6.70;;;;;;;-145.63;100.00;61273.97;5030333;28;20091;-65
2024/02/08 06:33:59;;;;;;;12.55;7.20;;;;;;;-145.63;100.00;61273.97;5033071;28;20034;-66
2024/02/08 06:36:30;;;;;;;10.90;6.38;;;;;;;-145.63;100.00;61273.97;5033088;28;20514;-65
2024/02/08 06:39:19;;;;;;;10.43;6.32;;;;;;;-145.63;100.00;61273.97;5025488;28;20065;-65
2024/02/08 06:41:55;;;;;;;11.52;6.65;;;;;;;-145.63;100.00;61273.97;5016691;28;20482;-65
2024/02/08 07:39:30;;;;;;;9.10;6.13;;;;;;;-145.63;100.00;61273.97;5019892;28;20040;-65
2024/02/08 07:41:56;;;;;;;12.23;6.28;;;;;;;-145.63;100.00;61273.97;5032330;28;20155;-67
2024/02/08 07:44:23;;;;;;;9.75;5.47;;;;;;;-145.63;100.00;61273.97;5031371;28;20105;-64
2024/02/08 07:46:50;;;;;;;11.63;5.70;;;;;;;-145.63;100.00;61273.97;5032044;28;20116;-65
2024/02/08 07:49:17;;;;;;;8.73;5.00;;;;;;;-145.63;100.00;61273.97;5032105;28;20029;-64
2024/02/08 07:51:50;;;;;;;9.27;5.40;;;;;;;-145.63;100.00;61273.97;5021980;28;20490;-66
2024/02/08 07:54:20;;;;;;;8.20;4.95;;;;;;;-145.63;100.00;61273.97;5027929;28;20447;-65
2024/02/08 07:56:47;;;;;;;9.18;5.43;;;;;;;-145.63;100.00;61273.97;5031105;28;20041;-66
2024/02/08 07:59:16;;;;;;;10.27;5.57;;;;;;;-145.63;100.00;61273.97;5030204;28;20033;-65
2024/02/08 08:01:50;;;;;;;8.65;4.75;;;;;;;-145.63;100.00;61273.97;5030603;28;20135;-64
2024/02/08 08:04:41;;;;;;;7.45;4.65;;;;;;;-145.63;100.00;61273.97;5028797;28;20056;-66
2024/02/08 08:07:07;;;;;;;8.65;4.78;;;;;;;-145.63;100.00;61273.97;5017146;28;21056;-64
2024/02/08 08:09:39;;;;;;;8.43;5.33;;;;;;;-145.63;100.00;61273.97;5026208;28;20068;-64
2024/02/08 08:12:05;;;;;;;7.22;4.70;;;;;;;-145.63;100.00;61273.97;5027970;28;20510;-66
2024/02/08 08:19:38;;;;;;;9.77;4.70;;;;;;;-145.63;100.00;61273.97;5030367;28;20037;-64
2024/02/08 08:22:18;;;;;;;5.50;3.88;;;;;;;-145.63;100.00;61273.97;5031884;28;20033;-67
2024/02/08 08:25:10;;;;;;;6.90;4.43;;;;;;;-145.63;100.00;61273.97;5024250;28;20045;-64
2024/02/08 08:30:30;;;;;;;8.05;4.40;;;;;;;-145.63;100.00;61273.97;5032528;28;20484;-67
2024/02/08 08:38:28;;;;;;;6.97;4.55;;;;;;;-145.63;100.00;61273.97;5036228;28;20073;-66
2024/02/08 08:41:06;;;;;;;6.97;4.38;;;;;;;-145.63;100.00;61273.97;5015196;28;20394;-65
2024/02/08 08:43:35;;;;;;;8.02;5.03;;;;;;;-145.63;100.00;61273.97;5033223;28;20557;-66
2024/02/08 08:46:01;;;;;;;7.88;4.82;;;;;;;-145.63;100.00;61273.97;5028337;28;20026;-66
2024/02/08 08:48:31;;;;;;;8.23;4.40;;;;;;;-145.63;100.00;61273.97;5024334;28;20030;-67
2024/02/08 08:50:58;;;;;;;6.53;4.82;;;;;;;-145.63;100.00;61273.97;5034534;28;20038;-65
2024/02/08 08:53:28;;;;;;;7.05;4.97;;;;;;;-145.63;100.00;61273.97;5033984;28;20033;-64
2024/02/08 08:55:55;;;;;;;7.80;4.13;;;;;;;-145.63;100.00;61273.97;5034584;28;20051;-64
2024/02/08 08:58:28;;;;;;;5.57;4.53;;;;;;;-145.63;100.00;61273.97;5034787;28;20029;-65
2024/02/08 09:03:39;;;;;;;8.20;4.63;;;;;;;-145.63;100.00;61273.97;5035106;28;20025;-65
2024/02/08 09:06:12;;;;;;;7.63;3.92;;;;;;;-145.63;100.00;61273.97;5033198;28;20056;-65
2024/02/08 09:08:54;;;;;;;7.07;4.90;;;;;;;-145.63;100.00;61273.97;5034102;28;20083;-66
2024/02/08 09:11:24;;;;;;;7.38;4.03;;;;;;;-145.63;100.00;61273.97;5034633;28;20033;-65
2024/02/08 09:13:55;;;;;;;7.90;4.03;;;;;;;-145.63;100.00;61273.97;5034723;28;20033;-65
2024/02/08 09:21:32;;;;;;;7.13;4.55;;;;;;;-145.63;100.00;61273.97;5034228;28;20033;-65
2024/02/08 09:24:06;;;;;;;7.57;3.85;;;;;;;-145.63;100.00;61273.97;5034815;28;20025;-65
2024/02/08 09:26:48;;;;;;;6.22;3.60;;;;;;;-145.63;100.00;61273.97;5034900;28;20152;-66
2024/02/08 09:29:24;;;;;;;5.85;4.15;;;;;;;-145.63;100.00;61273.97;5033838;28;20168;-65
2024/02/08 09:31:57;;;;;;;5.43;3.95;;;;;;;-145.63;100.00;61273.97;5021660;28;20072;-64
2024/02/08 09:34:36;;;;;;;7.53;4.57;;;;;;;-145.63;100.00;61273.97;5034533;28;20033;-63
2024/02/08 09:37:13;;;;;;;6.07;3.90;;;;;;;-145.63;100.00;61273.97;5030826;28;20111;-65
2024/02/08 09:42:37;;;;;;;8.80;4.43;;;;;;;-145.63;100.00;61273.97;5025102;28;20073;-67
2024/02/08 09:45:18;;;;;;;7.50;4.30;;;;;;;-145.63;100.00;61273.97;5033809;28;20029;-65
2024/02/08 09:47:54;;;;;;;10.52;4.53;;;;;;;-145.63;100.00;61273.97;5033450;28;20033;-65
2024/02/08 09:50:35;;;;;;;7.13;3.90;;;;;;;-145.63;100.00;61273.97;5033693;28;20033;-65
2024/02/08 09:53:30;;;;;;;6.53;4.20;;;;;;;-145.63;100.00;61273.97;5020481;28;20588;-65
2024/02/08 09:55:59;;;;;;;5.93;4.22;;;;;;;-145.63;100.00;61273.97;5018486;28;20164;-64
2024/02/08 09:58:35;;;;;;;7.45;4.53;;;;;;;-145.63;100.00;61273.97;5034124;28;20036;-66
2024/02/08 10:01:14;;;;;;;8.57;4.25;;;;;;;-145.63;100.00;61273.97;5032724;28;20037;-66
2024/02/08 10:03:44;;;;;;;7.13;4.15;;;;;;;-145.63;100.00;61273.97;5033953;28;20026;-64
2024/02/08 10:06:22;;;;;;;7.55;4.72;;;;;;;-145.63;100.00;61273.97;5031228;28;20022;-65
2024/02/08 10:08:54;;;;;;;6.88;4.15;;;;;;;-145.63;100.00;61273.97;5022915;28;20114;-65
2024/02/08 10:11:24;;;;;;;6.40;4.32;;;;;;;-145.63;100.00;61273.97;5036681;28;20060;-64
2024/02/08 10:14:01;;;;;;;7.07;3.90;;;;;;;-145.63;100.00;61273.97;5053883;28;20039;-65
2024/02/08 10:16:47;;;;;;;7.80;4.68;;;;;;;-145.63;100.00;61273.97;5027378;28;20383;-64
2024/02/08 10:20:32;;;;;;;9.30;5.60;;;;;;;-145.63;100.00;61273.97;5032528;28;20191;-65
2024/02/08 10:22:17;;;;;;;8.50;4.50;;;;;;;-145.63;100.00;61273.97;5023005;28;20052;-65
2024/02/08 10:27:23;;;;;;;6.88;4.78;;;;;;;-145.63;100.00;61273.97;5033797;28;20095;-66
2024/02/08 10:29:52;;;;;;;8.20;5.10;;;;;;;-145.63;100.00;61273.97;5032752;28;20041;-64
2024/02/08 10:32:21;;;;;;;6.75;4.78;;;;;;;-145.63;100.00;61273.97;5033462;28;20026;-66
2024/02/08 10:34:52;;;;;;;9.18;4.90;;;;;;;-145.63;100.00;61273.97;5033023;28;20026;-66
2024/02/08 10:42:53;;;;;;;8.80;4.82;;;;;;;-145.63;100.00;61273.97;5026637;28;20034;-65
2024/02/08 10:45:23;;;;;;;8.40;4.63;;;;;;;-145.63;100.00;61273.97;5032870;28;20041;-65
2024/02/08 10:47:55;;;;;;;8.38;5.28;;;;;;;-145.63;100.00;61273.97;5033055;28;20063;-64
2024/02/08 10:50:24;;;;;;;7.25;4.88;;;;;;;-145.63;100.00;61273.97;5033971;28;20033;-66
2024/02/08 10:52:51;;;;;;;8.75;5.13;;;;;;;-145.63;100.00;61273.97;5032306;28;20037;-68
2024/02/08 10:55:30;;;;;;;7.57;4.88;;;;;;;-145.63;100.00;61273.97;5032356;28;20038;-65
2024/02/08 11:03:08;;;;;;;7.05;4.90;;;;;;;-145.63;100.00;61273.97;5032528;28;20383;-65
2024/02/08 11:05:48;;;;;;;8.88;5.05;;;;;;;-145.63;100.00;61273.97;5030303;28;20037;-65
2024/02/08 11:08:24;;;;;;;10.40;5.03;;;;;;;-145.63;100.00;61273.97;5030044;28;20041;-65
2024/02/08 11:10:58;;;;;;;10.18;5.10;;;;;;;-145.63;100.00;61273.97;5032016;28;20379;-65
2024/02/08 11:13:29;;;;;;;6.50;4.40;;;;;;;-145.63;100.00;61273.97;5025888;28;20052;-66
2024/02/08 11:16:04;;;;;;;;;;;;;;;-145.63;100.00;61273.97;5032762;28;20458;-65
2024/02/08 11:18:35;;;;;;;8.60;4.90;;;;;;;-145.63;100.00;61273.97;5030248;28;20373;-65
2024/02/08 11:21:04;;;;;;;8.48;4.90;;;;;;;-145.63;100.00;61273.97;5030987;28;20041;-64
2024/02/08 11:23:32;;;;;;;8.23;4.93;;;;;;;-145.63;100.00;61273.97;5031864;28;20065;-64
2024/02/08 11:26:08;;;;;;;9.57;4.95;;;;;;;-145.63;100.00;61273.97;5027975;28;20037;-66
2024/02/08 11:28:48;;;;;;;8.20;4.72;;;;;;;-145.63;100.00;61273.97;5028202;28;20037;-66
2024/02/08 11:31:17;;;;;;;8.00;5.00;;;;;;;-145.63;100.00;61273.97;5030656;28;20052;-65
2024/02/08 11:33:46;;;;;;;7.97;4.85;;;;;;;-145.63;100.00;61273.97;5018558;28;20071;-66
2024/02/08 11:36:13;;;;;;;6.57;3.97;;;;;;;-145.63;100.00;61273.97;5025922;28;20022;-68
2024/02/08 11:38:57;;;;;;;10.88;4.50;;;;;;;-145.63;100.00;61273.97;5035552;28;20037;-65
2024/02/08 11:41:26;;;;;;;9.43;4.93;;;;;;;-145.63;100.00;61273.97;5030988;28;20159;-66
2024/02/08 11:44:02;;;;;;;7.13;4.13;;;;;;;-145.63;100.00;61273.97;5021879;28;20065;-69
2024/02/08 11:46:45;;;;;;;5.75;3.92;;;;;;;-145.63;100.00;61273.97;5033142;28;20416;-67
2024/02/08 11:49:14;;;;;;;6.82;4.53;;;;;;;-145.63;100.00;61273.97;5032625;28;20041;-67
2024/02/08 11:51:48;;;;;;;8.57;4.95;;;;;;;-145.63;100.00;61273.97;5032706;28;20461;-66
2024/02/08 11:54:28;;;;;;;5.47;4.40;;;;;;;-145.63;100.00;61273.97;5032679;28;20529;-67
2024/02/08 11:56:57;;;;;;;5.63;4.13;;;;;;;-145.63;100.00;61273.97;5028510;28;20205;-69
2024/02/08 11:59:24;;;;;;;9.05;4.35;;;;;;;-145.63;100.00;61273.97;5012117;28;20387;-69
2024/02/08 12:01:52;;;;;;;10.05;4.32;;;;;;;-145.63;100.00;61273.97;5031161;28;20491;-65
2024/02/08 12:04:18;;;;;;;8.93;4.30;;;;;;;-145.63;100.00;61273.97;5031750;28;20036;-70
2024/02/08 12:06:46;;;;;;;5.97;4.38;;;;;;;-145.63;100.00;61273.97;5027776;28;20053;-67
2024/02/08 12:09:22;;;;;;;7.15;4.25;;;;;;;-145.63;100.00;61273.97;5031827;28;20379;-69
2024/02/08 12:11:51;;;;;;;7.90;4.90;;;;;;;-145.63;100.00;61273.97;5038651;28;20405;-64
2024/02/08 12:14:17;;;;;;;6.22;4.03;;;;;;;-145.63;100.00;61273.97;5051928;28;20044;-65
2024/02/08 12:16:46;;;;;;;7.55;3.90;;;;;;;-145.63;100.00;61273.97;5022538;28;20033;-66
2024/02/08 12:19:17;;;;;;;6.95;4.28;;;;;;;-145.63;100.00;61273.97;5025124;28;20040;-67
2024/02/08 12:21:43;;;;;;;5.82;3.72;;;;;;;-145.63;100.00;61273.97;5021858;28;20084;-69
2024/02/08 12:24:15;;;;;;;7.18;3.90;;;;;;;-145.63;100.00;61273.97;5015604;28;20133;-67
2024/02/08 12:26:43;;;;;;;7.95;4.25;;;;;;;-145.63;100.00;61273.97;5030765;28;20033;-66
2024/02/08 12:29:16;;;;;;;5.63;3.65;;;;;;;-145.63;100.00;61273.97;5012273;28;20463;-67
2024/02/08 12:31:47;;;;;;;6.22;4.03;;;;;;;-145.63;100.00;61273.97;5029923;28;20065;-67
2024/02/08 12:34:17;;;;;;;8.38;4.07;;;;;;;-145.63;100.00;61273.97;5022509;28;20045;-65
2024/02/08 12:36:46;;;;;;;8.95;4.78;;;;;;;-145.63;100.00;61273.97;5021778;28;20164;-65
2024/02/08 12:39:19;;;;;;;6.40;4.63;;;;;;;-145.63;100.00;61273.97;5027739;28;20148;-66
2024/02/08 12:41:49;;;;;;;6.20;4.00;;;;;;;-145.63;100.00;61273.97;5029849;28;20045;-65
2024/02/08 12:44:15;;;;;;;7.20;4.18;;;;;;;-145.63;100.00;61273.97;5012094;28;20436;-64
2024/02/08 12:46:49;;;;;;;5.97;4.15;;;;;;;-145.63;100.00;61273.97;5029359;28;20033;-64
2024/02/08 12:49:17;;;;;;;6.10;3.75;;;;;;;-145.63;100.00;61273.97;5030599;28;20447;-65
2024/02/08 12:51:43;;;;;;;6.35;4.20;;;;;;;-145.63;100.00;61273.97;5022150;28;20642;-64
2024/02/08 12:54:14;;;;;;;8.13;4.13;;;;;;;-145.63;100.00;61273.97;5016115;28;20048;-65
2024/02/08 12:56:40;;;;;;;8.10;4.50;;;;;;;-145.63;100.00;61273.97;5031449;28;20045;-64
2024/02/08 12:59:06;;;;;;;6.68;4.50;;;;;;;-145.63;100.00;61273.97;5031087;28;20458;-67
2024/02/08 13:01:41;;;;;;;5.57;3.78;;;;;;;-145.63;100.00;61273.97;5015237;28;20072;-67
2024/02/08 13:04:07;;;;;;;6.65;4.35;;;;;;;-145.63;100.00;61273.97;5017032;28;20065;-65
2024/02/08 13:06:34;;;;;;;7.85;3.92;;;;;;;-145.63;100.00;61273.97;5019514;28;20777;-64
2024/02/08 13:12:14;;;;;;;7.72;4.82;;;;;;;-145.63;100.00;61273.97;5010356;28;20093;-65
2024/02/08 13:14:48;;;;;;;10.43;3.97;;;;;;;-145.63;100.00;61273.97;5013468;28;20038;-63
2024/02/08 13:17:24;;;;;;;6.57;3.85;;;;;;;-145.63;100.00;61273.97;5016474;28;20034;-63
2024/02/08 13:19:57;;;;;;;7.88;4.63;;;;;;;-145.63;100.00;61273.97;5017390;28;20080;-64
2024/02/08 13:22:30;;;;;;;8.55;4.35;;;;;;;-145.63;100.00;61273.97;5028677;28;20024;-64
2024/02/08 13:24:58;;;;;;;8.65;4.82;;;;;;;-145.63;100.00;61273.97;5031620;28;20041;-63
2024/02/08 13:27:28;;;;;;;6.97;3.97;;;;;;;-145.63;100.00;61273.97;5034910;28;20025;-64
2024/02/08 13:29:56;;;;;;;7.65;3.97;;;;;;;-145.63;100.00;61273.97;5024771;28;20156;-65
2024/02/08 13:32:27;;;;;;;6.47;3.83;;;;;;;-145.63;100.00;61273.97;5034603;28;20030;-67
2024/02/08 13:34:57;;;;;;;5.07;3.75;;;;;;;-145.63;100.00;61273.97;5034426;28;20049;-66
2024/02/08 13:37:26;;;;;;;6.13;4.22;;;;;;;-145.63;100.00;61273.97;5032942;28;20086;-65
2024/02/08 13:40:05;;;;;;;5.80;3.65;;;;;;;-145.63;100.00;61273.97;5033439;28;20076;-66
2024/02/08 13:42:32;;;;;;;6.95;4.07;;;;;;;-145.63;100.00;61273.97;5034607;28;20105;-65
2024/02/08 13:45:02;;;;;;;7.30;4.43;;;;;;;-145.63;100.00;61273.97;5032666;28;20046;-65